Time;durP1;ratioP1;P1;durP2;ratioP2;P2;SDS_P1;SDS_P2;PMS_P1;PMS_P2;Temp;Humidity;BMP_temperature;BMP_pressure;BME280_temperature;BME280_humidity;BME280_pressure;Samples;Min_cycle;Max_cycle;Signal;HPM_P1;HPM_P2
2022/06/25 00:00:15;;;;;;;1.10;1.00;;;26.40;70.30;;;;;;5016710;28;20530;-84
2022/06/25 00:02:41;;;;;;;1.10;1.00;;;26.40;70.30;;;;;;5016565;28;20443;-85
2022/06/25 00:07:55;;;;;;;1.30;1.20;;;26.40;70.20;;;;;;5016746;28;20442;-84
2022/06/25 00:10:22;;;;;;;1.20;1.10;;;26.40;70.30;;;;;;5016457;28;20578;-85
2022/06/25 00:12:49;;;;;;;1.00;0.90;;;26.30;70.20;;;;;;5016116;28;20550;-84
2022/06/25 00:15:16;;;;;;;1.33;1.07;;;26.40;70.30;;;;;;5016460;28;20491;-84
2022/06/25 00:17:43;;;;;;;1.30;1.20;;;26.40;70.40;;;;;;5016328;28;20447;-84
2022/06/25 00:20:11;;;;;;;1.00;0.90;;;26.40;70.30;;;;;;5016369;28;21033;-84
2022/06/25 00:22:38;;;;;;;1.20;1.10;;;26.40;70.40;;;;;;5016461;28;20439;-84
2022/06/25 00:25:07;;;;;;;1.27;1.17;;;26.30;70.20;;;;;;5016251;28;20486;-84
2022/06/25 00:27:34;;;;;;;1.07;0.93;;;26.40;70.30;;;;;;5016173;28;20463;-84
2022/06/25 00:30:01;;;;;;;1.20;1.10;;;26.40;70.40;;;;;;5015956;28;21057;-84
2022/06/25 00:32:28;;;;;;;1.30;1.20;;;26.40;70.40;;;;;;5016053;28;20927;-84
2022/06/25 00:34:54;;;;;;;1.40;1.30;;;26.40;70.30;;;;;;5016157;28;20863;-84
2022/06/25 00:37:21;;;;;;;1.37;1.27;;;26.40;70.40;;;;;;5016166;28;20518;-84
2022/06/25 00:39:49;;;;;;;1.27;1.17;;;26.40;70.30;;;;;;5016031;28;20927;-84
2022/06/25 00:42:17;;;;;;;1.30;1.20;;;26.40;70.30;;;;;;5015946;28;20456;-84
2022/06/25 00:44:44;;;;;;;1.30;1.20;;;26.40;70.20;;;;;;5015742;28;20535;-84
2022/06/25 00:47:13;;;;;;;1.20;1.10;;;26.40;70.30;;;;;;5015817;28;20468;-91
2022/06/25 00:49:40;;;;;;;1.00;0.90;;;26.30;70.20;;;;;;5015647;28;20522;-84
2022/06/25 00:52:10;;;;;;;1.20;1.10;;;26.40;70.30;;;;;;5015243;28;20483;-84
2022/06/25 00:54:39;;;;;;;1.20;1.10;;;26.40;70.20;;;;;;5015614;28;20863;-84
2022/06/25 00:57:07;;;;;;;1.30;1.20;;;26.40;70.30;;;;;;5015720;28;20442;-84
2022/06/25 00:59:40;;;;;;;1.07;0.97;;;26.40;70.40;;;;;;5015599;28;20814;-84
2022/06/25 01:02:07;;;;;;;1.17;1.03;;;26.30;70.20;;;;;;5015638;28;20506;-84
2022/06/25 01:04:34;;;;;;;1.30;1.20;;;26.30;70.10;;;;;;5015676;28;20857;-84
2022/06/25 01:07:01;;;;;;;1.10;1.00;;;26.30;70.10;;;;;;5015332;28;20467;-84
2022/06/25 01:09:28;;;;;;;1.30;1.20;;;26.40;70.30;;;;;;5015405;28;20435;-84
2022/06/25 01:11:55;;;;;;;1.20;1.10;;;26.30;70.20;;;;;;5015276;28;20842;-84
2022/06/25 01:14:22;;;;;;;1.20;1.00;;;26.30;70.10;;;;;;5015381;28;20806;-84
2022/06/25 01:16:50;;;;;;;1.43;1.33;;;26.40;70.30;;;;;;5015297;28;20885;-84
2022/06/25 01:19:17;;;;;;;1.10;0.97;;;26.40;70.20;;;;;;5015135;28;20482;-84
2022/06/25 01:21:44;;;;;;;1.30;1.20;;;26.30;70.20;;;;;;5015290;28;20444;-84
2022/06/25 01:24:13;;;;;;;1.20;1.10;;;26.40;70.30;;;;;;5014996;28;20953;-84
2022/06/25 01:26:41;;;;;;;1.17;1.07;;;26.30;70.10;;;;;;5014983;28;20546;-84
2022/06/25 01:29:09;;;;;;;1.00;0.90;;;26.40;70.30;;;;;;5015101;28;21041;-84
2022/06/25 01:31:37;;;;;;;1.20;1.10;;;26.40;70.20;;;;;;5014864;28;20570;-85
2022/06/25 01:34:04;;;;;;;1.37;1.07;;;26.40;70.30;;;;;;5015206;28;20574;-87
2022/06/25 01:36:31;;;;;;;1.10;0.90;;;26.40;70.30;;;;;;5014818;28;20443;-84
2022/06/25 01:38:58;;;;;;;1.10;1.00;;;26.30;70.20;;;;;;5014872;28;20446;-84
2022/06/25 01:41:26;;;;;;;1.23;1.13;;;26.40;70.20;;;;;;5014791;28;20539;-84
2022/06/25 01:43:53;;;;;;;1.20;1.00;;;26.40;70.20;;;;;;5014683;28;20546;-84
2022/06/25 01:46:21;;;;;;;1.07;0.97;;;26.30;70.10;;;;;;5014753;28;20483;-84
2022/06/25 01:48:48;;;;;;;1.23;1.10;;;26.40;70.20;;;;;;5014588;28;20475;-84
2022/06/25 01:51:16;;;;;;;1.03;0.90;;;26.40;70.30;;;;;;5014302;28;20487;-84
2022/06/25 01:53:43;;;;;;;1.20;1.10;;;26.30;70.20;;;;;;5014667;28;20788;-84
2022/06/25 01:56:10;;;;;;;1.03;0.93;;;26.30;70.10;;;;;;5014631;28;20538;-85
2022/06/25 01:58:39;;;;;;;1.03;0.90;;;26.30;70.20;;;;;;5014474;28;20439;-84
2022/06/25 02:01:06;;;;;;;1.10;1.00;;;26.40;70.30;;;;;;5014526;28;20442;-84
2022/06/25 02:03:33;;;;;;;1.00;0.90;;;26.30;70.20;;;;;;5014370;28;20446;-84
2022/06/25 02:06:00;;;;;;;1.10;1.00;;;26.30;70.10;;;;;;5014460;28;20522;-85
2022/06/25 02:08:30;;;;;;;1.20;1.10;;;26.40;70.20;;;;;;5014356;28;20607;-84
2022/06/25 02:10:57;;;;;;;1.10;1.00;;;26.40;70.20;;;;;;5014177;28;20486;-84
2022/06/25 02:13:25;;;;;;;1.10;1.00;;;26.30;70.10;;;;;;5014207;28;20540;-85
2022/06/25 02:15:54;;;;;;;1.27;1.17;;;26.40;70.20;;;;;;5014193;28;20439;-85
2022/06/25 02:18:22;;;;;;;1.00;0.90;;;26.30;70.10;;;;;;5014086;28;20436;-84
2022/06/25 02:20:49;;;;;;;1.10;1.00;;;26.30;70.10;;;;;;5014149;28;20877;-84
2022/06/25 02:23:17;;;;;;;1.27;1.17;;;26.30;70.10;;;;;;5014035;28;20526;-84
2022/06/25 02:25:44;;;;;;;1.23;1.00;;;26.30;70.10;;;;;;5014103;28;20463;-84
2022/06/25 02:28:12;;;;;;;1.00;0.90;;;26.30;70.10;;;;;;5013889;28;20545;-85
2022/06/25 02:30:39;;;;;;;1.07;0.97;;;26.30;70.00;;;;;;5013636;28;20487;-85
2022/06/25 02:33:11;;;;;;;1.10;1.00;;;26.30;70.10;;;;;;5013862;28;21007;-84
2022/06/25 02:35:38;;;;;;;1.00;0.90;;;26.30;70.10;;;;;;5013958;28;20439;-84
2022/06/25 02:38:05;;;;;;;1.50;1.30;;;26.30;70.20;;;;;;5013844;28;20872;-84
2022/06/25 02:40:32;;;;;;;1.20;1.10;;;26.30;70.10;;;;;;5013690;28;20447;-84
2022/06/25 02:42:58;;;;;;;1.20;0.97;;;26.30;70.10;;;;;;5013853;28;20546;-84
2022/06/25 02:45:25;;;;;;;1.10;1.00;;;26.30;70.10;;;;;;5013743;28;20440;-84
2022/06/25 02:47:52;;;;;;;1.10;1.00;;;26.30;70.00;;;;;;5013703;28;20458;-85
2022/06/25 02:50:20;;;;;;;1.07;0.97;;;26.30;70.10;;;;;;5013599;28;20479;-85
2022/06/25 02:52:47;;;;;;;1.40;1.30;;;26.30;70.10;;;;;;5013558;28;20471;-84
2022/06/25 02:55:14;;;;;;;1.10;1.00;;;26.30;70.10;;;;;;5013620;28;20522;-84
2022/06/25 03:00:25;;;;;;;1.10;1.00;;;26.30;70.20;;;;;;5013609;28;20427;-85
2022/06/25 03:02:52;;;;;;;1.10;1.00;;;26.30;70.20;;;;;;5013471;28;21007;-85
2022/06/25 03:05:21;;;;;;;1.20;1.10;;;26.30;70.20;;;;;;5013410;28;20864;-84
2022/06/25 03:07:47;;;;;;;1.07;0.97;;;26.30;70.10;;;;;;5013651;28;20474;-84
2022/06/25 03:10:14;;;;;;;1.20;1.10;;;26.30;70.10;;;;;;5013375;28;20461;-84
2022/06/25 03:12:41;;;;;;;1.10;0.90;;;26.30;70.10;;;;;;5013270;28;20494;-84
2022/06/25 03:15:09;;;;;;;1.10;0.90;;;26.30;70.10;;;;;;5013116;28;20479;-84
2022/06/25 03:17:36;;;;;;;1.17;1.07;;;26.30;70.10;;;;;;5012976;28;20475;-84
2022/06/25 03:20:02;;;;;;;1.20;0.90;;;26.30;70.10;;;;;;5013329;28;20861;-84
2022/06/25 03:22:31;;;;;;;1.10;1.00;;;26.30;70.10;;;;;;5013346;28;20440;-84
2022/06/25 03:24:57;;;;;;;1.00;0.90;;;26.30;70.10;;;;;;5013468;28;20446;-84
2022/06/25 03:27:24;;;;;;;1.40;0.97;;;26.30;70.10;;;;;;5012973;28;20515;-84
2022/06/25 03:29:51;;;;;;;1.10;1.00;;;26.30;70.10;;;;;;5013180;28;20530;-85
2022/06/25 03:32:18;;;;;;;1.20;0.87;;;26.30;70.10;;;;;;5013161;28;20490;-84
2022/06/25 03:34:45;;;;;;;1.20;1.10;;;26.30;70.00;;;;;;5013298;28;20534;-84
2022/06/25 03:37:12;;;;;;;1.10;1.00;;;26.30;70.20;;;;;;5013063;28;20530;-84
2022/06/25 03:39:40;;;;;;;1.20;1.10;;;26.30;70.10;;;;;;5012900;28;20627;-84
2022/06/25 03:42:07;;;;;;;1.10;0.90;;;26.30;70.10;;;;;;5012911;28;20530;-84
2022/06/25 03:44:34;;;;;;;1.13;1.03;;;26.30;70.10;;;;;;5013017;28;20868;-84
2022/06/25 03:47:01;;;;;;;1.07;0.90;;;26.30;70.00;;;;;;5013147;28;20526;-86
2022/06/25 03:49:28;;;;;;;1.30;1.20;;;26.30;70.00;;;;;;5013045;28;20527;-85
2022/06/25 03:51:55;;;;;;;1.17;1.07;;;26.30;70.10;;;;;;4995299;28;20483;-84
2022/06/25 03:54:22;;;;;;;1.00;0.90;;;26.30;70.00;;;;;;5012978;28;20531;-84
2022/06/25 03:56:50;;;;;;;1.10;0.90;;;26.30;70.10;;;;;;5012901;28;20450;-84
2022/06/25 03:59:17;;;;;;;1.03;0.93;;;26.30;70.10;;;;;;5013217;28;20845;-84
2022/06/25 04:01:44;;;;;;;1.00;0.90;;;26.30;70.10;;;;;;5012923;28;20443;-85
2022/06/25 04:04:11;;;;;;;1.10;0.90;;;26.30;70.00;;;;;;5012874;28;20497;-84
2022/06/25 04:06:38;;;;;;;1.20;1.10;;;26.30;70.00;;;;;;5012883;28;20994;-84
2022/06/25 04:09:05;;;;;;;1.00;0.90;;;26.30;70.10;;;;;;5012755;28;20538;-84
2022/06/25 04:11:32;;;;;;;1.10;0.93;;;26.30;70.00;;;;;;5012675;28;20574;-85
2022/06/25 04:14:00;;;;;;;1.10;0.90;;;26.30;70.00;;;;;;5012710;28;20467;-84
2022/06/25 04:16:27;;;;;;;1.10;0.90;;;26.30;70.00;;;;;;5012915;28;20449;-84
2022/06/25 04:18:54;;;;;;;1.13;1.03;;;26.30;70.00;;;;;;5012796;28;20478;-84
2022/06/25 04:21:21;;;;;;;1.10;1.00;;;26.20;70.00;;;;;;5012848;28;20526;-85
2022/06/25 04:23:48;;;;;;;1.20;0.90;;;26.30;70.10;;;;;;5012782;28;20435;-84
2022/06/25 04:26:15;;;;;;;1.30;1.20;;;26.20;70.00;;;;;;5012692;28;20508;-84
2022/06/25 04:31:27;;;;;;;1.00;0.90;;;26.30;70.10;;;;;;5015936;28;20498;-84
2022/06/25 04:33:54;;;;;;;1.10;1.00;;;26.30;70.10;;;;;;5016172;28;20966;-89
2022/06/25 04:36:21;;;;;;;1.47;1.37;;;26.30;70.10;;;;;;5016137;28;20439;-84
2022/06/25 04:38:48;;;;;;;1.90;1.00;;;26.20;70.10;;;;;;5016036;28;20527;-84
2022/06/25 04:41:15;;;;;;;1.10;1.00;;;26.30;70.10;;;;;;5016113;28;20474;-84
2022/06/25 04:43:42;;;;;;;1.00;0.80;;;26.30;70.10;;;;;;5015907;28;20466;-85
2022/06/25 04:46:09;;;;;;;1.30;1.20;;;26.30;70.00;;;;;;5016028;28;20471;-84
2022/06/25 04:48:37;;;;;;;1.10;1.00;;;26.30;70.10;;;;;;5015918;28;20526;-85
2022/06/25 04:51:04;;;;;;;1.17;1.07;;;26.20;70.00;;;;;;5015859;28;21029;-84
2022/06/25 04:53:31;;;;;;;1.10;1.00;;;26.30;70.00;;;;;;5015894;28;20534;-84
2022/06/25 04:55:58;;;;;;;1.13;1.03;;;26.30;70.10;;;;;;5015612;28;20447;-84
2022/06/25 04:58:25;;;;;;;1.00;0.90;;;26.20;70.00;;;;;;5015640;28;20526;-85
2022/06/25 05:00:52;;;;;;;0.97;0.80;;;26.30;70.10;;;;;;5015720;28;20522;-84
2022/06/25 05:03:18;;;;;;;1.00;0.90;;;26.30;70.10;;;;;;5015645;28;20453;-84
2022/06/25 05:05:47;;;;;;;1.00;0.90;;;26.20;70.10;;;;;;5015581;28;20443;-84
2022/06/25 05:08:14;;;;;;;1.10;0.90;;;26.30;70.10;;;;;;5015407;28;20737;-85
2022/06/25 05:10:40;;;;;;;1.07;0.97;;;26.20;70.00;;;;;;5015260;28;20526;-84
2022/06/25 05:13:14;;;;;;;1.10;1.00;;;26.30;70.10;;;;;;5015291;28;20909;-84
2022/06/25 05:15:42;;;;;;;1.10;1.00;;;26.20;70.10;;;;;;5015502;28;20446;-85
2022/06/25 05:18:11;;;;;;;1.00;0.80;;;26.20;70.10;;;;;;5015309;28;20483;-84
2022/06/25 05:20:39;;;;;;;1.10;1.00;;;26.30;70.10;;;;;;5015237;28;20958;-84
2022/06/25 05:23:08;;;;;;;1.00;0.80;;;26.30;70.10;;;;;;5015289;28;20522;-84
2022/06/25 05:25:36;;;;;;;1.20;1.10;;;26.30;70.10;;;;;;5015250;28;20546;-84
2022/06/25 05:28:03;;;;;;;1.23;0.93;;;26.30;70.10;;;;;;5014988;28;20983;-84
2022/06/25 05:30:30;;;;;;;1.60;1.03;;;26.30;70.30;;;;;;5015026;28;20471;-84
2022/06/25 05:32:57;;;;;;;1.00;0.80;;;26.20;70.10;;;;;;5015229;28;20583;-84
2022/06/25 05:35:24;;;;;;;1.10;1.00;;;26.30;70.10;;;;;;5014941;28;20539;-84
2022/06/25 05:37:51;;;;;;;1.07;0.90;;;26.30;70.20;;;;;;5014933;28;20538;-85
2022/06/25 05:40:19;;;;;;;1.20;1.10;;;26.20;70.00;;;;;;5014275;28;20538;-84
2022/06/25 05:42:47;;;;;;;1.03;0.93;;;26.20;70.00;;;;;;5014758;28;20575;-84
2022/06/25 05:45:14;;;;;;;1.10;1.00;;;26.30;70.10;;;;;;5014674;28;20479;-84
2022/06/25 05:47:41;;;;;;;1.10;1.00;;;26.30;70.10;;;;;;5014719;28;20530;-84
2022/06/25 05:50:09;;;;;;;1.20;0.90;;;26.20;70.10;;;;;;5014676;28;20973;-84
2022/06/25 05:52:36;;;;;;;1.00;0.83;;;26.20;70.10;;;;;;5014632;28;20574;-85
2022/06/25 05:55:04;;;;;;;1.00;0.90;;;26.30;70.20;;;;;;5014649;28;20527;-84
2022/06/25 05:57:32;;;;;;;1.10;1.00;;;26.30;70.10;;;;;;5014414;28;20530;-90
2022/06/25 05:59:59;;;;;;;1.00;0.87;;;26.20;70.20;;;;;;5014499;28;20467;-84
2022/06/25 06:02:26;;;;;;;1.20;1.10;;;26.30;70.20;;;;;;5014725;28;20439;-85
2022/06/25 06:04:54;;;;;;;1.00;0.83;;;26.20;70.20;;;;;;5014479;28;20451;-91
2022/06/25 06:07:21;;;;;;;1.10;1.00;;;26.30;71.10;;;;;;5014340;28;20448;-84
2022/06/25 06:09:48;;;;;;;1.00;0.80;;;26.30;70.20;;;;;;5014242;28;20588;-85
2022/06/25 06:12:15;;;;;;;1.10;1.00;;;26.20;70.20;;;;;;5014144;28;20581;-84
2022/06/25 06:14:43;;;;;;;0.90;0.80;;;26.20;70.20;;;;;;5014400;28;20445;-84
2022/06/25 06:17:10;;;;;;;1.10;0.97;;;26.30;70.20;;;;;;5014095;28;20531;-84
2022/06/25 06:19:37;;;;;;;1.10;0.90;;;26.20;70.40;;;;;;5014222;28;20442;-92
2022/06/25 06:22:05;;;;;;;1.10;0.90;;;26.20;70.20;;;;;;5014188;28;20870;-84
2022/06/25 06:24:32;;;;;;;1.07;0.97;;;26.20;70.30;;;;;;5014138;28;20475;-85
2022/06/25 06:27:00;;;;;;;0.90;0.80;;;26.30;70.20;;;;;;5013963;28;20558;-85
2022/06/25 06:29:27;;;;;;;1.10;1.00;;;26.30;70.20;;;;;;5013938;28;20448;-84
2022/06/25 06:31:55;;;;;;;1.23;1.13;;;26.20;70.20;;;;;;5013882;28;20570;-85
2022/06/25 06:34:22;;;;;;;1.10;1.00;;;26.30;70.30;;;;;;5014146;28;20454;-91
2022/06/25 06:36:49;;;;;;;0.90;0.80;;;26.20;70.20;;;;;;5013975;28;20953;-85
2022/06/25 06:39:16;;;;;;;1.03;0.93;;;26.30;70.40;;;;;;5013789;28;20450;-84
2022/06/25 06:41:43;;;;;;;1.00;0.90;;;26.20;70.30;;;;;;5013846;28;20872;-84
2022/06/25 06:44:09;;;;;;;1.07;0.90;;;26.20;70.20;;;;;;5013901;28;20486;-84
2022/06/25 06:46:36;;;;;;;1.37;0.80;;;26.30;70.30;;;;;;5013696;28;20862;-84
2022/06/25 06:49:04;;;;;;;1.40;0.90;;;26.20;70.30;;;;;;5013666;28;20431;-85
2022/06/25 06:51:31;;;;;;;1.00;0.90;;;26.30;70.20;;;;;;5012666;28;20436;-84
2022/06/25 06:53:58;;;;;;;1.10;1.00;;;26.30;70.20;;;;;;5013505;28;20581;-84
2022/06/25 06:56:25;;;;;;;1.33;1.23;;;26.30;70.30;;;;;;5013640;28;20486;-85
2022/06/25 06:58:52;;;;;;;1.00;0.80;;;26.20;70.30;;;;;;5013632;28;20450;-84
2022/06/25 07:01:19;;;;;;;1.10;1.00;;;26.20;70.30;;;;;;5013488;28;20448;-85
2022/06/25 07:03:46;;;;;;;0.90;0.80;;;26.30;70.30;;;;;;5013484;28;20448;-85
2022/06/25 07:06:14;;;;;;;1.20;0.97;;;26.20;70.10;;;;;;5013517;28;20436;-84
2022/06/25 07:08:41;;;;;;;1.17;0.90;;;26.20;70.10;;;;;;5013342;28;20444;-84
2022/06/25 07:13:49;;;;;;;1.00;0.90;;;26.30;70.20;;;;;;5012408;28;20491;-85
2022/06/25 07:16:16;;;;;;;1.00;0.90;;;26.20;70.10;;;;;;5013418;28;20445;-84
2022/06/25 07:18:42;;;;;;;1.00;0.90;;;26.30;70.00;;;;;;5013668;28;20467;-85
2022/06/25 07:21:09;;;;;;;1.10;0.90;;;26.20;70.10;;;;;;5013503;28;20474;-84
2022/06/25 07:23:38;;;;;;;0.90;0.80;;;26.20;70.40;;;;;;5013330;28;20535;-87
2022/06/25 07:26:05;;;;;;;1.07;0.90;;;26.20;70.20;;;;;;5013256;28;20867;-84
2022/06/25 07:28:32;;;;;;;1.00;0.90;;;26.20;70.10;;;;;;5013140;28;20554;-85
2022/06/25 07:30:59;;;;;;;1.20;0.97;;;26.20;70.00;;;;;;5013256;28;20518;-85
2022/06/25 07:33:26;;;;;;;1.00;0.90;;;26.20;70.10;;;;;;5013150;28;20489;-84
2022/06/25 07:35:52;;;;;;;1.10;1.00;;;26.30;71.00;;;;;;5013350;28;20447;-91
2022/06/25 07:38:19;;;;;;;1.00;0.90;;;26.30;70.20;;;;;;5013065;28;20443;-85
2022/06/25 07:40:47;;;;;;;1.50;1.00;;;26.20;70.10;;;;;;5013164;28;20515;-85
2022/06/25 07:43:14;;;;;;;1.00;0.80;;;26.20;69.90;;;;;;5013323;28;20486;-92
2022/06/25 07:45:41;;;;;;;1.00;0.83;;;26.20;69.80;;;;;;5013196;28;20482;-84
2022/06/25 07:48:08;;;;;;;1.20;1.00;;;26.20;69.90;;;;;;5013015;28;20447;-84
2022/06/25 07:53:22;;;;;;;1.00;0.90;;;26.20;69.70;;;;;;4995483;28;20464;-91
2022/06/25 07:55:52;;;;;;;1.50;1.13;;;26.20;69.70;;;;;;5013066;28;20446;-91
2022/06/25 07:58:19;;;;;;;1.10;1.00;;;26.20;69.90;;;;;;5013002;28;20539;-84
2022/06/25 08:00:46;;;;;;;1.03;0.93;;;26.30;69.90;;;;;;5013122;28;20800;-85
2022/06/25 08:03:13;;;;;;;1.30;1.10;;;26.20;69.90;;;;;;5015634;28;20969;-85
2022/06/25 08:05:40;;;;;;;1.10;1.00;;;26.20;69.80;;;;;;5016802;28;20446;-86
2022/06/25 08:08:06;;;;;;;1.00;0.90;;;26.20;69.70;;;;;;5016549;28;20477;-85
2022/06/25 08:10:34;;;;;;;1.17;1.00;;;26.30;69.90;;;;;;5016449;28;20522;-85
2022/06/25 08:13:02;;;;;;;1.07;0.97;;;26.30;69.80;;;;;;5016541;28;20562;-85
2022/06/25 08:15:29;;;;;;;1.23;0.90;;;26.30;69.90;;;;;;5016522;28;20439;-84
2022/06/25 08:17:56;;;;;;;1.10;0.97;;;26.20;69.70;;;;;;5016379;28;20478;-84
2022/06/25 08:20:23;;;;;;;1.00;0.80;;;26.30;69.90;;;;;;5016316;28;20539;-84
2022/06/25 08:22:50;;;;;;;1.10;1.00;;;26.20;69.70;;;;;;5016518;28;20443;-91
2022/06/25 08:25:17;;;;;;;1.00;0.90;;;26.30;69.70;;;;;;5016282;28;20872;-86
2022/06/25 08:27:49;;;;;;;1.03;0.93;;;26.30;69.60;;;;;;5016246;28;20574;-85
2022/06/25 08:30:18;;;;;;;1.07;0.90;;;26.30;69.60;;;;;;5016469;28;20951;-84
2022/06/25 08:32:45;;;;;;;1.07;0.97;;;26.30;69.60;;;;;;5016574;28;20921;-85
2022/06/25 08:35:12;;;;;;;1.13;0.97;;;26.30;69.50;;;;;;5016273;28;20534;-84
2022/06/25 08:37:39;;;;;;;1.00;0.90;;;26.30;69.40;;;;;;5016054;28;20535;-84
2022/06/25 08:40:07;;;;;;;1.00;0.90;;;26.30;69.50;;;;;;5016006;28;20527;-85
2022/06/25 08:42:34;;;;;;;1.13;0.90;;;26.30;69.40;;;;;;5016165;28;20550;-84
2022/06/25 08:45:02;;;;;;;1.10;1.00;;;26.30;69.30;;;;;;5016027;28;20471;-84
2022/06/25 08:47:30;;;;;;;1.10;1.00;;;26.30;69.30;;;;;;5015969;28;20530;-91
2022/06/25 08:49:58;;;;;;;1.10;0.97;;;26.30;69.20;;;;;;5015809;28;20950;-91
2022/06/25 08:52:28;;;;;;;1.00;0.90;;;26.30;69.10;;;;;;5015711;28;20534;-84
2022/06/25 08:54:56;;;;;;;1.00;0.80;;;26.30;69.10;;;;;;5015712;28;20444;-84
2022/06/25 08:57:23;;;;;;;1.00;0.80;;;26.30;69.10;;;;;;5015638;28;20505;-84
2022/06/25 08:59:50;;;;;;;1.00;0.90;;;26.30;69.10;;;;;;5015666;28;20478;-84
2022/06/25 09:02:17;;;;;;;1.00;0.87;;;26.30;69.10;;;;;;5015857;28;20534;-84
2022/06/25 09:04:45;;;;;;;1.10;0.90;;;26.30;69.10;;;;;;5015870;28;20442;-90
2022/06/25 09:07:13;;;;;;;0.90;0.70;;;26.30;69.00;;;;;;5015660;28;20534;-84
2022/06/25 09:09:41;;;;;;;1.20;0.97;;;26.30;69.00;;;;;;5015287;28;20531;-84
2022/06/25 09:12:09;;;;;;;1.70;0.93;;;26.30;69.00;;;;;;5015916;28;20451;-90
2022/06/25 09:14:38;;;;;;;1.20;0.90;;;26.30;69.00;;;;;;5015873;28;20484;-84
2022/06/25 09:17:08;;;;;;;1.00;0.90;;;26.30;69.00;;;;;;5015524;28;20475;-85
2022/06/25 09:19:36;;;;;;;1.20;1.10;;;26.30;69.00;;;;;;5015241;28;20479;-84
2022/06/25 09:22:06;;;;;;;1.20;1.10;;;26.30;69.10;;;;;;5015373;28;20450;-84
2022/06/25 09:24:40;;;;;;;2.23;1.00;;;26.30;69.10;;;;;;5015289;28;20852;-84
2022/06/25 09:27:07;;;;;;;1.20;1.10;;;26.30;69.00;;;;;;5015058;28;20486;-85
2022/06/25 09:29:39;;;;;;;1.50;1.13;;;26.30;69.00;;;;;;5014989;28;20867;-84
2022/06/25 09:32:06;;;;;;;1.20;1.10;;;26.40;68.90;;;;;;5015168;28;20439;-84
2022/06/25 09:34:35;;;;;;;1.73;1.40;;;26.30;68.80;;;;;;5014896;28;20515;-84
2022/06/25 09:37:18;;;;;;;1.37;1.27;;;26.30;68.80;;;;;;5015035;28;20444;-87
2022/06/25 09:39:46;;;;;;;2.43;1.20;;;26.40;68.80;;;;;;5014830;28;20770;-84
2022/06/25 09:42:24;;;;;;;1.30;1.03;;;26.30;68.80;;;;;;5014686;28;20522;-92
2022/06/25 09:45:08;;;;;;;1.07;0.90;;;26.40;68.80;;;;;;5014877;28;20450;-85
2022/06/25 09:47:37;;;;;;;1.10;1.00;;;26.30;68.80;;;;;;5014756;28;20444;-84
2022/06/25 09:50:06;;;;;;;1.10;1.00;;;26.30;68.80;;;;;;5014712;28;20444;-85
2022/06/25 09:52:36;;;;;;;1.60;0.90;;;26.30;68.80;;;;;;5014261;28;21017;-84
2022/06/25 09:55:06;;;;;;;3.77;0.97;;;26.30;68.80;;;;;;5014738;28;20800;-84
2022/06/25 09:57:33;;;;;;;1.43;1.10;;;26.30;68.70;;;;;;5014608;28;20432;-85
2022/06/25 10:00:01;;;;;;;1.00;0.90;;;26.30;68.80;;;;;;5014682;28;20808;-85
2022/06/25 10:02:29;;;;;;;1.10;1.00;;;26.30;68.80;;;;;;5014460;28;20439;-84
2022/06/25 10:05:01;;;;;;;2.07;1.30;;;26.30;68.80;;;;;;5014615;28;20454;-84
2022/06/25 10:10:15;;;;;;;1.40;1.23;;;26.30;68.80;;;;;;5013212;28;20486;-91
2022/06/25 10:12:42;;;;;;;1.17;1.07;;;26.40;68.90;;;;;;5014376;28;20463;-84
2022/06/25 10:15:10;;;;;;;1.00;0.90;;;26.40;68.90;;;;;;5014338;28;20512;-84
2022/06/25 10:17:37;;;;;;;1.20;1.07;;;26.40;68.90;;;;;;5014064;28;20535;-84
2022/06/25 10:20:05;;;;;;;1.27;1.03;;;26.30;68.80;;;;;;5014284;28;20790;-84
2022/06/25 10:22:33;;;;;;;2.17;1.00;;;26.30;68.70;;;;;;5014200;28;20534;-84
2022/06/25 10:25:01;;;;;;;1.40;1.00;;;26.30;68.70;;;;;;5013944;28;20546;-85
2022/06/25 10:27:29;;;;;;;1.63;1.00;;;26.40;68.80;;;;;;5013857;28;20578;-91
2022/06/25 10:29:57;;;;;;;1.27;1.17;;;26.30;68.70;;;;;;5014182;28;20534;-84
2022/06/25 10:32:25;;;;;;;1.27;0.90;;;26.30;68.70;;;;;;5014066;28;20443;-84
2022/06/25 10:34:57;;;;;;;2.40;0.90;;;26.30;68.80;;;;;;5014093;28;20527;-84
2022/06/25 10:37:24;;;;;;;1.00;0.90;;;26.30;68.70;;;;;;5013963;28;20444;-92
2022/06/25 10:39:54;;;;;;;1.37;1.00;;;26.30;68.70;;;;;;5013989;28;20467;-92
2022/06/25 10:45:56;;;;;;;1.40;0.93;;;26.40;68.70;;;;;;5013955;28;20426;-84
2022/06/25 10:48:25;;;;;;;1.10;0.87;;;26.30;68.70;;;;;;5013749;28;20527;-85
2022/06/25 10:50:54;;;;;;;1.17;0.90;;;26.30;68.90;;;;;;5013748;28;20449;-84
2022/06/25 10:53:24;;;;;;;1.40;1.30;;;26.30;68.80;;;;;;5014216;28;20479;-84
2022/06/25 10:56:19;;;;;;;1.10;1.00;;;26.40;68.90;;;;;;5013770;28;20443;-84
2022/06/25 10:58:49;;;;;;;1.33;0.93;;;26.30;68.60;;;;;;5013402;28;20448;-84
2022/06/25 11:01:24;;;;;;;1.23;1.00;;;26.30;68.80;;;;;;5013682;28;20443;-84
2022/06/25 11:03:53;;;;;;;1.13;1.03;;;26.30;68.70;;;;;;5013560;28;20487;-84
2022/06/25 11:06:22;;;;;;;2.03;1.00;;;26.30;68.80;;;;;;5013526;28;20522;-84
2022/06/25 11:08:50;;;;;;;1.63;1.20;;;26.30;68.70;;;;;;5013315;28;20475;-84
2022/06/25 11:11:30;;;;;;;2.27;1.10;;;26.30;68.70;;;;;;5013549;28;20454;-89
2022/06/25 11:13:59;;;;;;;1.13;1.00;;;26.40;68.80;;;;;;5013401;28;20574;-84
2022/06/25 11:16:26;;;;;;;3.50;1.00;;;26.40;68.80;;;;;;5013349;28;20439;-84
2022/06/25 11:18:55;;;;;;;1.27;1.17;;;26.30;68.70;;;;;;5013406;28;20478;-84
2022/06/25 11:21:30;;;;;;;2.40;1.40;;;26.40;68.90;;;;;;5013666;28;20446;-85
2022/06/25 11:24:15;;;;;;;1.00;0.90;;;26.30;68.70;;;;;;5013336;28;20534;-84
2022/06/25 11:29:31;;;;;;;1.00;0.87;;;26.30;68.80;;;;;;5013456;28;20415;-84
2022/06/25 11:31:59;;;;;;;1.10;1.00;;;26.30;68.80;;;;;;5013320;28;20846;-84
2022/06/25 11:34:28;;;;;;;1.17;0.90;;;26.40;68.90;;;;;;5013050;28;21065;-84
2022/06/25 11:37:07;;;;;;;1.10;1.00;;;26.30;68.70;;;;;;5013944;28;20440;-84
2022/06/25 11:39:36;;;;;;;2.13;1.20;;;26.40;68.80;;;;;;5017335;28;20462;-84
2022/06/25 11:42:03;;;;;;;1.10;1.00;;;26.40;68.90;;;;;;5017224;28;20534;-84
2022/06/25 11:44:40;;;;;;;1.27;0.83;;;26.40;68.90;;;;;;5017160;28;20440;-84
2022/06/25 11:47:07;;;;;;;1.10;0.90;;;26.40;68.90;;;;;;5017219;28;20534;-84
2022/06/25 11:49:38;;;;;;;2.20;1.23;;;26.40;68.90;;;;;;4999206;28;20442;-91
2022/06/25 11:52:07;;;;;;;1.00;0.90;;;26.40;68.90;;;;;;5016554;28;20443;-84
2022/06/25 11:54:36;;;;;;;1.40;1.30;;;26.40;68.90;;;;;;5016766;28;20594;-84
2022/06/25 11:57:04;;;;;;;1.03;0.93;;;26.40;68.90;;;;;;5017080;28;20447;-84
2022/06/25 11:59:33;;;;;;;2.03;1.27;;;26.40;68.80;;;;;;5016701;28;20479;-85
2022/06/25 12:02:03;;;;;;;1.33;1.20;;;26.40;68.90;;;;;;5016703;28;20621;-85
2022/06/25 12:04:31;;;;;;;1.20;1.10;;;26.40;68.80;;;;;;5016750;28;20447;-84
2022/06/25 12:06:58;;;;;;;1.00;0.90;;;26.40;68.80;;;;;;5016660;28;20441;-84
2022/06/25 12:09:26;;;;;;;1.20;1.10;;;26.40;68.80;;;;;;5016605;28;20542;-84
2022/06/25 12:11:55;;;;;;;1.10;1.00;;;26.40;68.80;;;;;;5016565;28;20526;-87
2022/06/25 12:14:23;;;;;;;1.47;1.20;;;26.40;68.90;;;;;;5016458;28;20514;-84
2022/06/25 12:16:50;;;;;;;1.10;0.90;;;26.40;68.80;;;;;;5016687;28;20444;-84
2022/06/25 12:19:19;;;;;;;1.10;0.90;;;26.40;68.90;;;;;;5016491;28;20593;-84
2022/06/25 12:21:46;;;;;;;1.40;0.90;;;26.40;68.90;;;;;;5016785;28;20697;-85
2022/06/25 12:24:14;;;;;;;1.00;0.90;;;26.40;68.90;;;;;;5016529;28;20475;-85
2022/06/25 12:26:51;;;;;;;0.90;0.80;;;26.40;69.70;;;;;;5016070;28;20513;-93
2022/06/25 12:29:20;;;;;;;1.17;0.93;;;26.40;68.80;;;;;;5016596;28;20534;-86
2022/06/25 12:31:54;;;;;;;1.00;0.90;;;26.40;68.90;;;;;;5016221;28;20439;-85
2022/06/25 12:34:22;;;;;;;1.23;1.00;;;26.40;68.80;;;;;;5016261;28;20482;-85
2022/06/25 12:36:50;;;;;;;1.07;0.90;;;26.40;68.80;;;;;;5016362;28;20446;-85
2022/06/25 12:39:32;;;;;;;1.03;0.93;;;26.40;68.80;;;;;;5016118;28;20451;-85
2022/06/25 12:42:04;;;;;;;1.10;1.00;;;26.40;68.80;;;;;;5016226;28;20452;-85
2022/06/25 12:44:36;;;;;;;1.00;0.73;;;26.40;68.90;;;;;;5016263;28;20498;-86
2022/06/25 12:47:05;;;;;;;1.03;0.93;;;26.40;68.80;;;;;;5016033;28;20467;-85
2022/06/25 12:49:45;;;;;;;1.30;0.90;;;26.40;68.90;;;;;;5014357;28;20518;-85
2022/06/25 12:52:13;;;;;;;1.30;1.00;;;26.40;68.90;;;;;;5016087;28;20439;-85
2022/06/25 12:54:44;;;;;;;1.00;0.80;;;26.30;68.80;;;;;;5015918;28;20493;-93
2022/06/25 12:57:18;;;;;;;1.00;0.90;;;26.40;68.90;;;;;;5016030;28;20534;-84
2022/06/25 12:59:46;;;;;;;1.10;0.90;;;26.40;68.90;;;;;;5015789;28;20519;-86
2022/06/25 13:02:12;;;;;;;1.10;1.00;;;26.40;69.00;;;;;;5015793;28;20927;-92
2022/06/25 13:04:40;;;;;;;1.33;1.10;;;26.40;68.90;;;;;;5015958;28;20472;-84
2022/06/25 13:07:09;;;;;;;1.30;1.20;;;26.40;68.90;;;;;;5015581;28;21005;-84
2022/06/25 13:09:36;;;;;;;0.90;0.73;;;26.40;68.90;;;;;;5015476;28;20535;-90
2022/06/25 13:12:04;;;;;;;1.70;1.10;;;26.40;68.90;;;;;;5015463;28;20491;-84
2022/06/25 13:14:31;;;;;;;1.07;0.97;;;26.40;68.90;;;;;;5015570;28;20483;-84